M I D A S
Marine Information and Data Acquisition System
Tripno 2060 of the Zeeleeuw from 2011-03-17 07:15:59 to 2011-03-17 18:06:09
Back to CruiseResearch ActivitiesStationsMapUnderway DataData graphs

EquipmentUnitsComments
TimeDGPSUTC
LatitudeDGPSDM.mWGS84
LongitudeDGPSDM.mWGS84
SpeedMeteo Stationm/sRelative wind speed
DirectionMeteo StationdegRelative wind direction
TemperatureMeteo Stationdeg CelciusAir temperature
PressureMeteo StationPaAtmospheric pressure
HumidityMeteo Station%Relative humidity
Missing or incorrect values are displayed as -999
Metereological data collected by the RV Zeeleeuw from 2011-03-17 07:05:48 to 2011-03-17 18:13:10
Time Latitude Longitude Speed Direction Temperature Pressure Humidity
2011-03-17 07:06 51°13.662 2°55.96 0.1 283 4.9 101120 49
2011-03-17 07:07 51°13.662 2°55.96 0.1 287 4.9 101110 47
2011-03-17 07:08 51°13.663 2°55.959 0.9 283 4.9 101110 46
2011-03-17 07:09 51°13.662 2°55.96 1.2 287 4.9 101120 48
2011-03-17 07:10 51°13.662 2°55.96 0.6 80 4.9 101120 46
2011-03-17 07:11 51°13.662 2°55.96 1.2 281 4.9 101120 49
2011-03-17 07:12 51°13.662 2°55.96 0.2 285 4.9 101110 47
2011-03-17 07:13 51°13.662 2°55.96 0.2 283 4.9 101120 47
2011-03-17 07:14 51°13.662 2°55.96 0.2 86 4.9 101110 50
2011-03-17 07:15 51°13.662 2°55.96 -999 286 4.9 101120 47
2011-03-17 07:16 51°13.662 2°55.96 5.2 45 4.9 101120 46
2011-03-17 07:17 51°13.662 2°55.96 2.9 281 4.8 101120 46
2011-03-17 07:18 51°13.662 2°55.96 3.1 74 4.8 101120 49
2011-03-17 07:19 51°13.662 2°55.959 1.8 80 4.8 101120 49
2011-03-17 07:20 51°13.662 2°55.959 0.4 82 4.8 101120 47
2011-03-17 07:21 51°13.662 2°55.959 2 287 4.8 101120 48
2011-03-17 07:22 51°13.662 2°55.959 2.3 81 4.8 101120 47
2011-03-17 07:23 51°13.662 2°55.959 0.7 283 4.8 101120 47
2011-03-17 07:24 51°13.662 2°55.96 2.2 281 4.8 101120 47
2011-03-17 07:25 51°13.663 2°55.959 2.7 284 4.9 101120 47
2011-03-17 07:26 51°13.662 2°55.959 0.3 282 4.9 101120 48
2011-03-17 07:27 51°13.662 2°55.96 0.5 278 4.8 101130 47
2011-03-17 07:28 51°13.663 2°55.96 0.1 283 4.8 101120 47
2011-03-17 07:29 51°13.662 2°55.96 2.9 280 4.8 101130 47
2011-03-17 07:30 51°13.662 2°55.96 2 78 4.8 101130 48
2011-03-17 07:31 51°13.662 2°55.96 -999 78 4.8 101120 47
2011-03-17 07:32 51°13.663 2°55.96 -999 283 4.8 101120 47
2011-03-17 07:33 51°13.663 2°55.96 -999 73 4.8 101120 47
2011-03-17 07:34 51°13.663 2°55.959 0.7 287 4.8 101130 49
2011-03-17 07:35 51°13.663 2°55.961 -999 77 4.8 101130 47
2011-03-17 07:36 51°13.663 2°55.961 2.8 77 4.8 101140 45
2011-03-17 07:37 51°13.662 2°55.961 4 81 4.8 101140 47
2011-03-17 07:38 51°13.663 2°55.961 2.1 77 4.9 101140 46
2011-03-17 07:39 51°13.662 2°55.96 2.7 73 4.9 101140 47
2011-03-17 07:40 51°13.665 2°55.947 4.1 73 4.9 101140 46
2011-03-17 07:41 51°13.678 2°55.865 4.4 80 4.9 101140 48
2011-03-17 07:42 51°13.694 2°55.775 4.7 84 4.9 101140 46
2011-03-17 07:43 51°13.731 2°55.701 5.3 77 4.9 101140 46
2011-03-17 07:44 51°13.798 2°55.642 4.5 76 4.9 101140 47
2011-03-17 07:45 51°13.882 2°55.619 0.8 75 5.2 101140 47
2011-03-17 07:46 51°13.938 2°55.643 3.3 44 5.2 101130 46
2011-03-17 07:47 51°13.951 2°55.638 3.5 22 5.1 101130 47
2011-03-17 07:48 51°13.993 2°55.548 6.1 285 5.1 101130 49
2011-03-17 07:49 51°14.098 2°55.44 7.9 286 5.1 101110 46
2011-03-17 07:50 51°14.228 2°55.315 8.2 280 5 101110 48
2011-03-17 07:51 51°14.373 2°55.171 9.4 348 4.9 101100 47
2011-03-17 07:52 51°14.531 2°54.993 8.9 287 4.9 101100 48
2011-03-17 07:53 51°14.687 2°54.812 8.8 282 4.9 101100 48
2011-03-17 07:54 51°14.852 2°54.647 9.2 279 4.9 101090 48
2011-03-17 07:55 51°15.02 2°54.505 11.4 281 5 101100 47
2011-03-17 07:56 51°15.2 2°54.401 10.4 282 4.9 101090 48
2011-03-17 07:57 51°15.39 2°54.393 10.9 278 4.9 101100 48
2011-03-17 07:58 51°15.578 2°54.353 11.7 280 4.9 101100 47
2011-03-17 07:59 51°15.768 2°54.319 10.2 286 4.9 101100 48
2011-03-17 08:00 51°15.957 2°54.28 10.2 280 5 101110 49
2011-03-17 08:01 51°16.116 2°54.267 7.9 285 4.9 101100 48
2011-03-17 08:02 51°16.205 2°54.328 6.6 279 4.9 101110 49
2011-03-17 08:03 51°16.264 2°54.383 5 281 4.9 101110 48
2011-03-17 08:04 51°16.273 2°54.418 5.1 280 5 101100 46
2011-03-17 08:05 51°16.269 2°54.446 4.7 285 5 101110 49
2011-03-17 08:06 51°16.262 2°54.471 5.2 285 5 101100 47
2011-03-17 08:07 51°16.255 2°54.491 5 283 5 101100 49
2011-03-17 08:08 51°16.248 2°54.509 5.2 287 5 101100 49
2011-03-17 08:09 51°16.241 2°54.525 6.1 279 5 101100 49
2011-03-17 08:10 51°16.233 2°54.539 5.3 280 5 101110 46
2011-03-17 08:11 51°16.225 2°54.551 4.5 280 5 101110 47
2011-03-17 08:12 51°16.217 2°54.562 5.7 278 5 101110 48
2011-03-17 08:13 51°16.21 2°54.573 5.9 282 5 101110 49
2011-03-17 08:14 51°16.202 2°54.585 4.4 286 5 101120 47
2011-03-17 08:15 51°16.193 2°54.6 7 285 5.1 101110 46
2011-03-17 08:16 51°16.154 2°54.648 3.1 75 5.1 101110 49
2011-03-17 08:17 51°16.096 2°54.59 4.7 20 5.2 101120 48
2011-03-17 08:18 51°16.079 2°54.407 6 12 5.1 101110 46
2011-03-17 08:19 51°16.123 2°54.234 8.8 352 5 101090 47
2011-03-17 08:20 51°16.229 2°54.157 10.2 284 4.9 101090 49
2011-03-17 08:21 51°16.272 2°54.211 6.4 284 4.9 101100 46
2011-03-17 08:22 51°16.266 2°54.229 4.8 280 4.8 101110 46
2011-03-17 08:23 51°16.257 2°54.248 3.8 284 4.9 101130 46
2011-03-17 08:24 51°16.247 2°54.269 3.5 278 4.8 101130 46
2011-03-17 08:25 51°16.238 2°54.29 4.7 285 4.8 101130 47
2011-03-17 08:26 51°16.23 2°54.312 3.4 281 4.8 101130 50
2011-03-17 08:27 51°16.223 2°54.333 2.2 287 4.9 101130 47
2011-03-17 08:28 51°16.216 2°54.354 2.7 280 4.9 101120 46
2011-03-17 08:29 51°16.209 2°54.375 7.3 284 5 101130 46
2011-03-17 08:30 51°16.202 2°54.394 4.4 286 5 101120 48
2011-03-17 08:31 51°16.196 2°54.418 4.3 282 5 101120 46
2011-03-17 08:32 51°16.227 2°54.473 6.4 285 4.9 101120 47
2011-03-17 08:33 51°16.285 2°54.413 9.4 353 4.9 101120 49
2011-03-17 08:34 51°16.354 2°54.199 8.4 283 4.9 101110 47
2011-03-17 08:35 51°16.459 2°53.933 10 347 5 101110 49
2011-03-17 08:36 51°16.576 2°53.665 10.3 280 5 101110 48
2011-03-17 08:37 51°16.693 2°53.393 9.1 348 4.9 101100 49
2011-03-17 08:38 51°16.823 2°53.133 8.7 284 4.9 101110 47
2011-03-17 08:39 51°16.961 2°52.888 10.6 281 4.9 101110 48
2011-03-17 08:40 51°17.104 2°52.642 11.3 281 4.9 101110 49
2011-03-17 08:41 51°17.259 2°52.417 9.9 282 5 101110 48
2011-03-17 08:42 51°17.414 2°52.189 11 285 5 101120 47
2011-03-17 08:43 51°17.568 2°51.96 14.7 282 5 101110 49
2011-03-17 08:44 51°17.72 2°51.733 11 283 4.9 101110 48
2011-03-17 08:45 51°17.871 2°51.509 11.3 282 4.9 101100 49
2011-03-17 08:46 51°18.027 2°51.291 13.5 288 5 101120 48
2011-03-17 08:47 51°18.153 2°51.14 9.2 281 4.9 101130 48
2011-03-17 08:48 51°18.236 2°51.051 9.2 286 4.9 101140 47
2011-03-17 08:49 51°18.293 2°50.984 9.4 282 4.9 101150 48
2011-03-17 08:50 51°18.346 2°50.921 6.8 286 4.8 101150 47
2011-03-17 08:51 51°18.404 2°50.901 6.5 284 4.9 101150 47
2011-03-17 08:52 51°18.465 2°50.932 7.4 279 4.9 101150 49
2011-03-17 08:53 51°18.52 2°50.963 5.8 281 4.9 101150 47
2011-03-17 08:54 51°18.53 2°50.988 5.3 284 4.9 101150 47
2011-03-17 08:55 51°18.529 2°51.015 5.2 285 4.9 101150 49
2011-03-17 08:56 51°18.524 2°51.039 6.8 284 4.9 101150 49
2011-03-17 08:57 51°18.519 2°51.062 3.6 282 4.9 101150 47
2011-03-17 08:58 51°18.514 2°51.086 5.4 280 4.9 101150 50
2011-03-17 08:59 51°18.509 2°51.108 3.2 282 4.9 101140 47
2011-03-17 09:00 51°18.504 2°51.131 3.3 280 5 101140 49
2011-03-17 09:01 51°18.5 2°51.155 0.1 282 5 101150 48
2011-03-17 09:02 51°18.495 2°51.179 -999 283 5 101140 48
2011-03-17 09:03 51°18.491 2°51.201 8.5 282 5 101140 50
2011-03-17 09:04 51°18.486 2°51.224 8.2 280 5 101150 47
2011-03-17 09:05 51°18.482 2°51.247 6.2 280 5 101140 46
2011-03-17 09:06 51°18.478 2°51.27 7.1 279 5 101140 48
2011-03-17 09:07 51°18.475 2°51.294 7.5 282 5 101150 49
2011-03-17 09:08 51°18.47 2°51.317 7.5 281 5 101150 49
2011-03-17 09:09 51°18.466 2°51.339 5.1 280 5 101140 49
2011-03-17 09:10 51°18.463 2°51.363 6.8 279 5 101160 50
2011-03-17 09:11 51°18.459 2°51.386 4.9 285 5 101160 47
2011-03-17 09:12 51°18.457 2°51.41 4.1 283 4.9 101160 49
2011-03-17 09:13 51°18.477 2°51.547 7 282 5 101140 48
2011-03-17 09:14 51°18.533 2°51.845 8.5 279 5 101130 48
2011-03-17 09:15 51°18.6 2°52.208 8.7 279 5 101120 47
2011-03-17 09:16 51°18.664 2°52.563 9.1 284 5 101130 48
2011-03-17 09:17 51°18.738 2°52.926 10.4 280 5 101130 48
2011-03-17 09:18 51°18.809 2°53.277 9.4 285 5 101120 49
2011-03-17 09:19 51°18.883 2°53.641 10 286 5 101120 49
2011-03-17 09:20 51°18.957 2°54 10.8 282 5 101110 48
2011-03-17 09:21 51°19.03 2°54.36 10.4 281 5 101130 46
2011-03-17 09:22 51°19.104 2°54.72 8.8 286 4.9 101120 49
2011-03-17 09:23 51°19.18 2°55.075 9.1 284 4.9 101130 49
2011-03-17 09:24 51°19.258 2°55.442 9.4 287 4.9 101130 49
2011-03-17 09:25 51°19.335 2°55.796 9.5 282 4.9 101130 48
2011-03-17 09:26 51°19.416 2°56.164 8.7 280 4.9 101120 47
2011-03-17 09:27 51°19.494 2°56.524 8.6 285 4.9 101130 49
2011-03-17 09:28 51°19.574 2°56.892 9.6 282 4.9 101120 47
2011-03-17 09:29 51°19.654 2°57.254 10 280 4.9 101120 47
2011-03-17 09:30 51°19.732 2°57.611 8.9 284 4.9 101130 48
2011-03-17 09:31 51°19.813 2°57.982 8.8 281 4.9 101120 48
2011-03-17 09:32 51°19.891 2°58.344 9.9 285 4.9 101130 49
2011-03-17 09:33 51°19.972 2°58.718 9.5 280 4.9 101120 49
2011-03-17 09:34 51°20.051 2°59.081 9.1 284 4.9 101120 49
2011-03-17 09:35 51°20.131 2°59.458 9.9 286 4.8 101120 49
2011-03-17 09:36 51°20.207 2°59.826 9.2 282 4.8 101120 47
2011-03-17 09:37 51°20.287 3°0.206 9.1 282 4.8 101110 47
2011-03-17 09:38 51°20.354 3°0.586 12.1 285 4.8 101120 48
2011-03-17 09:39 51°20.421 3°0.961 11.3 283 4.8 101120 48
2011-03-17 09:40 51°20.49 3°1.347 11.5 285 4.8 101110 49
2011-03-17 09:41 51°20.56 3°1.72 9.6 286 4.8 101110 48
2011-03-17 09:42 51°20.626 3°2.096 9.7 282 4.8 101110 48
2011-03-17 09:43 51°20.681 3°2.414 7.9 284 4.8 101120 49
2011-03-17 09:44 51°20.727 3°2.595 8 286 4.9 101160 50
2011-03-17 09:45 51°20.737 3°2.643 6.4 83 4.9 101140 49
2011-03-17 09:46 51°20.75 3°2.662 5.8 287 4.8 101150 50
2011-03-17 09:47 51°20.758 3°2.688 5.3 75 4.8 101170 50
2011-03-17 09:48 51°20.763 3°2.721 7.1 75 4.8 101160 50
2011-03-17 09:49 51°20.765 3°2.762 5.3 77 4.8 101160 47
2011-03-17 09:50 51°20.766 3°2.807 5.1 288 4.8 101170 49
2011-03-17 09:51 51°20.767 3°2.856 1.8 286 4.8 101170 47
2011-03-17 09:52 51°20.77 3°2.902 3.7 279 4.8 101170 48
2011-03-17 09:53 51°20.772 3°2.943 2.8 284 4.8 101170 47
2011-03-17 09:54 51°20.775 3°2.976 3.8 282 4.8 101160 50
2011-03-17 09:55 51°20.78 3°3.005 4.8 74 4.8 101170 50
2011-03-17 09:56 51°20.788 3°3.03 3.3 285 4.8 101170 47
2011-03-17 09:57 51°20.8 3°3.053 6.9 77 4.9 101170 49
2011-03-17 09:58 51°20.801 3°3.099 5.3 285 4.9 101160 47
2011-03-17 09:59 51°20.813 3°3.218 7.6 285 4.9 101170 49
2011-03-17 10:00 51°20.893 3°3.276 8 280 4.9 101170 48
2011-03-17 10:01 51°20.957 3°3.099 7.4 3 4.9 101150 48
2011-03-17 10:02 51°20.842 3°2.889 4.4 6 4.9 101180 49
2011-03-17 10:03 51°20.676 3°2.729 4.2 358 4.9 101190 48
2011-03-17 10:04 51°20.627 3°2.467 9.9 353 4.9 101180 50
2011-03-17 10:05 51°20.718 3°2.429 8.2 287 4.9 101190 49
2011-03-17 10:06 51°20.752 3°2.498 5.9 283 4.9 101170 50
2011-03-17 10:07 51°20.757 3°2.538 4.6 280 4.9 101180 47
2011-03-17 10:08 51°20.764 3°2.572 5.5 291 4.9 101190 47
2011-03-17 10:09 51°20.771 3°2.606 6 74 4.9 101190 47
2011-03-17 10:10 51°20.777 3°2.64 5.6 76 4.9 101190 47
2011-03-17 10:11 51°20.783 3°2.674 6.8 80 4.9 101190 50
2011-03-17 10:12 51°20.788 3°2.709 7.5 76 4.9 101180 50
2011-03-17 10:13 51°20.79 3°2.75 5.7 73 4.8 101180 49
2011-03-17 10:14 51°20.792 3°2.796 5.1 84 4.8 101180 48
2011-03-17 10:15 51°20.793 3°2.85 5.8 287 4.8 101180 47
2011-03-17 10:16 51°20.807 3°2.977 7.7 281 4.9 101180 47
2011-03-17 10:17 51°20.83 3°3.218 7.6 281 4.8 101170 49
2011-03-17 10:18 51°20.861 3°3.558 8.5 279 4.8 101180 50
2011-03-17 10:19 51°20.89 3°3.93 8.7 285 4.9 101170 47
2011-03-17 10:20 51°20.92 3°4.314 9.3 282 4.9 101170 50
2011-03-17 10:21 51°20.95 3°4.697 10.3 281 4.9 101170 48
2011-03-17 10:22 51°20.998 3°5.078 8.9 282 4.9 101170 47
2011-03-17 10:23 51°21.031 3°5.456 9.9 280 4.9 101200 50
2011-03-17 10:24 51°21.061 3°5.835 8.4 281 4.9 101160 50
2011-03-17 10:25 51°21.102 3°6.211 8.4 284 4.9 101170 47
2011-03-17 10:26 51°21.175 3°6.575 9.7 280 4.9 101160 47
2011-03-17 10:27 51°21.252 3°6.937 10.2 280 4.9 101160 49
2011-03-17 10:28 51°21.339 3°7.291 10.7 279 4.9 101160 49
2011-03-17 10:29 51°21.427 3°7.647 10.9 280 4.8 101160 48
2011-03-17 10:30 51°21.514 3°8.005 8.2 281 4.8 101170 48
2011-03-17 10:31 51°21.597 3°8.366 9.2 284 4.8 101170 48
2011-03-17 10:32 51°21.681 3°8.725 9.1 286 4.8 101180 49
2011-03-17 10:33 51°21.763 3°9.085 9.1 279 4.8 101180 49
2011-03-17 10:34 51°21.848 3°9.443 7.9 280 4.8 101180 50
2011-03-17 10:35 51°21.933 3°9.805 8.5 281 4.8 101180 49
2011-03-17 10:36 51°22.018 3°10.171 9.9 281 4.8 101180 48
2011-03-17 10:37 51°22.061 3°10.549 8 280 4.8 101170 49
2011-03-17 10:38 51°22.099 3°10.931 8.2 284 4.8 101170 49
2011-03-17 10:39 51°22.147 3°11.311 8 281 4.8 101180 48
2011-03-17 10:40 51°22.223 3°11.675 8.6 283 4.8 101170 49
2011-03-17 10:41 51°22.282 3°11.936 7 286 4.8 101180 50
2011-03-17 10:42 51°22.325 3°12.125 7.2 286 4.8 101200 48
2011-03-17 10:43 51°22.368 3°12.265 7.5 287 4.8 101200 48
2011-03-17 10:44 51°22.41 3°12.434 8 285 4.8 101160 50
2011-03-17 10:45 51°22.448 3°12.623 7.3 281 4.8 101170 47
2011-03-17 10:46 51°22.483 3°12.819 7.1 282 4.8 101170 49
2011-03-17 10:47 51°22.504 3°12.939 5.5 285 4.8 101180 47
2011-03-17 10:48 51°22.505 3°12.987 4.5 286 4.8 101190 47
2011-03-17 10:49 51°22.505 3°13.034 4.1 287 4.7 101190 48
2011-03-17 10:50 51°22.504 3°13.08 3.8 285 4.7 101190 47
2011-03-17 10:51 51°22.501 3°13.129 2.1 280 4.7 101190 50
2011-03-17 10:52 51°22.498 3°13.177 1.8 278 4.7 101190 46
2011-03-17 10:53 51°22.495 3°13.225 3.5 280 4.8 101190 49
2011-03-17 10:54 51°22.493 3°13.273 0.9 279 4.8 101190 48
2011-03-17 10:55 51°22.49 3°13.321 2.7 284 4.8 101190 51
2011-03-17 10:56 51°22.487 3°13.369 1.2 283 4.7 101190 51
2011-03-17 10:57 51°22.483 3°13.419 1.8 287 4.7 101190 46
2011-03-17 10:58 51°22.479 3°13.468 1.4 279 4.7 101190 50
2011-03-17 10:59 51°22.449 3°13.554 0.1 77 4.7 101190 48
2011-03-17 11:00 51°22.399 3°13.543 3.3 9 4.8 101190 48
2011-03-17 11:01 51°22.431 3°13.485 7.3 285 4.8 101200 47
2011-03-17 11:02 51°22.547 3°13.372 8.5 280 4.8 101180 48
2011-03-17 11:03 51°22.716 3°13.217 9.6 284 4.8 101170 48
2011-03-17 11:04 51°22.898 3°13.077 12.9 284 4.8 101180 47
2011-03-17 11:05 51°23.081 3°12.936 9.8 280 4.9 101180 46
2011-03-17 11:06 51°23.271 3°12.812 9.7 280 4.8 101180 48
2011-03-17 11:07 51°23.463 3°12.694 9 281 4.8 101180 49
2011-03-17 11:08 51°23.654 3°12.57 10 283 4.8 101190 48
2011-03-17 11:09 51°23.848 3°12.447 13.8 283 4.9 101190 49
2011-03-17 11:10 51°24.043 3°12.323 13.9 280 4.9 101180 49
2011-03-17 11:11 51°24.236 3°12.198 12.6 287 4.9 101190 48
2011-03-17 11:12 51°24.425 3°12.07 10.7 282 4.9 101190 49
2011-03-17 11:13 51°24.612 3°11.927 9.7 283 4.9 101190 48
2011-03-17 11:14 51°24.791 3°11.761 13.5 278 4.9 101200 48
2011-03-17 11:15 51°24.961 3°11.57 13.8 283 4.9 101190 49
2011-03-17 11:16 51°25.11 3°11.338 11.9 284 4.9 101190 49
2011-03-17 11:17 51°25.234 3°11.074 11 284 4.8 101190 48
2011-03-17 11:18 51°25.352 3°10.802 13.3 279 4.9 101190 48
2011-03-17 11:19 51°25.47 3°10.529 9.9 281 4.9 101190 48
2011-03-17 11:20 51°25.591 3°10.257 12.9 286 4.9 101190 48
2011-03-17 11:21 51°25.671 3°9.957 12.1 284 4.9 101190 48
2011-03-17 11:22 51°25.752 3°9.654 11 281 4.9 101190 48
2011-03-17 11:23 51°25.839 3°9.354 8.8 281 4.9 101190 50
2011-03-17 11:24 51°25.927 3°9.054 10.9 285 4.8 101190 48
2011-03-17 11:25 51°26.017 3°8.755 11.1 283 4.9 101190 47
2011-03-17 11:26 51°26.12 3°8.463 8.8 344 4.9 101200 49
2011-03-17 11:27 51°26.224 3°8.22 8.7 283 4.9 101210 49
2011-03-17 11:28 51°26.336 3°8.172 6.5 285 4.9 101220 49
2011-03-17 11:29 51°26.407 3°8.236 6.1 286 4.9 101220 46
2011-03-17 11:30 51°26.433 3°8.28 5.1 287 4.9 101220 50
2011-03-17 11:31 51°26.442 3°8.292 4.3 285 4.9 101230 50
2011-03-17 11:32 51°26.451 3°8.301 1.6 283 4.9 101230 47
2011-03-17 11:33 51°26.46 3°8.313 3.9 279 5 101230 47
2011-03-17 11:34 51°26.468 3°8.328 2.6 279 4.9 101230 48
2011-03-17 11:35 51°26.477 3°8.346 0.6 286 4.9 101220 50
2011-03-17 11:36 51°26.485 3°8.364 0.4 282 4.9 101220 47
2011-03-17 11:37 51°26.494 3°8.384 -999 283 4.9 101220 47
2011-03-17 11:38 51°26.503 3°8.404 -999 283 4.9 101220 49
2011-03-17 11:39 51°26.512 3°8.426 0.1 283 4.9 101220 49
2011-03-17 11:40 51°26.522 3°8.448 1.8 284 4.9 101220 48
2011-03-17 11:41 51°26.533 3°8.469 0.7 287 4.9 101220 49
2011-03-17 11:42 51°26.542 3°8.489 1.8 281 5 101220 48
2011-03-17 11:43 51°26.552 3°8.508 0.1 283 5 101220 47
2011-03-17 11:44 51°26.562 3°8.526 3.3 284 5 101220 50
2011-03-17 11:45 51°26.586 3°8.591 3.8 281 5 101210 49
2011-03-17 11:46 51°26.568 3°8.707 0.1 8 5 101220 48
2011-03-17 11:47 51°26.477 3°8.623 4.7 360 5 101220 50
2011-03-17 11:48 51°26.502 3°8.345 10.4 284 5 101200 50
2011-03-17 11:49 51°26.583 3°8.167 7.2 281 5 101230 50
2011-03-17 11:50 51°26.627 3°8.177 5.1 281 5 101240 48
2011-03-17 11:51 51°26.637 3°8.189 4.8 279 5 101240 47
2011-03-17 11:52 51°26.647 3°8.201 3.7 285 5 101240 50
2011-03-17 11:53 51°26.659 3°8.226 4.7 281 5.1 101240 46
2011-03-17 11:54 51°26.715 3°8.283 5.8 287 5.1 101220 50
2011-03-17 11:55 51°26.771 3°8.223 6.8 355 5.1 101220 49
2011-03-17 11:56 51°26.831 3°7.991 8.1 280 5 101210 47
2011-03-17 11:57 51°26.928 3°7.685 10.9 281 5 101210 47
2011-03-17 11:58 51°27.027 3°7.384 8.6 279 5.1 101210 50
2011-03-17 11:59 51°27.129 3°7.075 12.2 284 5.1 101210 49
2011-03-17 12:00 51°27.227 3°6.778 8.2 280 5.1 101210 48
2011-03-17 12:01 51°27.328 3°6.471 9 282 5.1 101220 48
2011-03-17 12:02 51°27.426 3°6.174 8.9 281 5.1 101210 49
2011-03-17 12:03 51°27.526 3°5.874 10.8 279 5.1 101220 50
2011-03-17 12:04 51°27.627 3°5.573 8 281 5.1 101220 48
2011-03-17 12:05 51°27.714 3°5.265 7.7 284 5.1 101220 48
2011-03-17 12:06 51°27.76 3°4.94 8.2 286 5.1 101220 49
2011-03-17 12:07 51°27.808 3°4.614 10.2 282 5.1 101220 49
2011-03-17 12:08 51°27.857 3°4.286 9.2 284 5.1 101240 50
2011-03-17 12:09 51°27.904 3°4.093 6.3 279 5.1 101240 49
2011-03-17 12:10 51°27.958 3°3.989 5.4 352 5.1 101250 50
2011-03-17 12:11 51°28.004 3°3.875 6.5 354 5.1 101250 51
2011-03-17 12:12 51°28.033 3°3.713 4.9 352 5.2 101250 50
2011-03-17 12:13 51°28.054 3°3.548 7.7 347 5.2 101250 48
2011-03-17 12:14 51°28.127 3°3.412 8 283 5.2 101250 50
2011-03-17 12:15 51°28.206 3°3.384 5.1 279 5.2 101270 50
2011-03-17 12:16 51°28.249 3°3.388 6.8 285 5.3 101270 49
2011-03-17 12:17 51°28.278 3°3.412 3.1 280 5.2 101270 49
2011-03-17 12:18 51°28.291 3°3.44 5 280 5.2 101270 48
2011-03-17 12:19 51°28.302 3°3.467 5.9 285 5.2 101270 50
2011-03-17 12:20 51°28.31 3°3.495 2.6 283 5.2 101260 47
2011-03-17 12:21 51°28.32 3°3.522 3.5 284 5.2 101270 47
2011-03-17 12:22 51°28.329 3°3.548 2.5 285 5.2 101280 51
2011-03-17 12:23 51°28.338 3°3.575 5.1 81 5.3 101270 48
2011-03-17 12:24 51°28.346 3°3.6 5.7 78 5.3 101270 48
2011-03-17 12:25 51°28.354 3°3.628 3.8 279 5.3 101270 46
2011-03-17 12:26 51°28.363 3°3.655 3.5 279 5.3 101270 49
2011-03-17 12:27 51°28.372 3°3.681 4.5 280 5.3 101270 51
2011-03-17 12:28 51°28.381 3°3.709 5.3 280 5.3 101270 48
2011-03-17 12:29 51°28.389 3°3.735 3.3 284 5.3 101280 47
2011-03-17 12:30 51°28.396 3°3.76 4 283 5.3 101270 50
2011-03-17 12:31 51°28.403 3°3.784 3.2 283 5.3 101270 48
2011-03-17 12:32 51°28.409 3°3.807 4.9 286 5.3 101270 51
2011-03-17 12:33 51°28.416 3°3.829 4.4 285 5.3 101270 49
2011-03-17 12:34 51°28.424 3°3.864 5.6 285 5.3 101270 51
2011-03-17 12:35 51°28.408 3°3.945 2.9 80 5.3 101280 51
2011-03-17 12:36 51°28.338 3°3.917 5.7 6 5.3 101270 48
2011-03-17 12:37 51°28.225 3°3.736 6.2 -999 5.4 101260 47
2011-03-17 12:38 51°28.145 3°3.522 12 345 5.3 101260 50
2011-03-17 12:39 51°28.233 3°3.396 8.4 287 5.3 101270 50
2011-03-17 12:40 51°28.287 3°3.43 9.2 280 5.3 101270 49
2011-03-17 12:41 51°28.301 3°3.456 5.8 284 5.3 101270 47
2011-03-17 12:42 51°28.31 3°3.484 5.1 75 5.3 101280 51
2011-03-17 12:43 51°28.318 3°3.512 4.8 75 5.3 101280 48
2011-03-17 12:44 51°28.326 3°3.541 5.4 80 5.3 101280 47
2011-03-17 12:45 51°28.336 3°3.57 5.2 74 5.3 101270 48
2011-03-17 12:46 51°28.346 3°3.598 3.1 279 5.3 101280 51
2011-03-17 12:47 51°28.354 3°3.623 5 284 5.3 101280 47
2011-03-17 12:48 51°28.362 3°3.646 3.6 284 5.3 101270 47
2011-03-17 12:49 51°28.369 3°3.668 3.6 285 5.3 101290 49
2011-03-17 12:50 51°28.375 3°3.688 3.4 286 5.4 101280 48
2011-03-17 12:51 51°28.381 3°3.708 1.6 283 5.4 101290 50
2011-03-17 12:52 51°28.387 3°3.729 4 286 5.3 101290 47
2011-03-17 12:53 51°28.393 3°3.749 4.9 281 5.3 101290 48
2011-03-17 12:54 51°28.4 3°3.768 4.4 281 5.3 101290 50
2011-03-17 12:55 51°28.406 3°3.788 4.2 286 5.4 101290 48
2011-03-17 12:56 51°28.411 3°3.808 4.2 286 5.3 101280 50
2011-03-17 12:57 51°28.417 3°3.826 -999 283 5.3 101280 48
2011-03-17 12:58 51°28.423 3°3.843 2.2 287 5.4 101280 49
2011-03-17 12:59 51°28.447 3°3.887 -999 283 5.4 101270 49
2011-03-17 13:00 51°28.503 3°3.897 0.1 283 5.4 101280 49
2011-03-17 13:01 51°28.531 3°3.815 -999 359 5.3 101270 49
2011-03-17 13:02 51°28.48 3°3.635 -999 357 5.3 101270 49
2011-03-17 13:03 51°28.378 3°3.369 -999 357 5.3 101260 49
2011-03-17 13:04 51°28.278 3°3.084 -999 355 5.3 101260 49
2011-03-17 13:05 51°28.184 3°2.81 -999 356 5.3 101260 48
2011-03-17 13:06 51°28.088 3°2.536 -999 356 5.3 101260 49
2011-03-17 13:07 51°27.999 3°2.261 -999 353 5.3 101260 49
2011-03-17 13:08 51°27.911 3°1.984 -999 354 5.3 101270 48
2011-03-17 13:09 51°27.825 3°1.704 -999 349 5.3 101260 49
2011-03-17 13:10 51°27.751 3°1.419 -999 348 5.4 101260 48
2011-03-17 13:11 51°27.723 3°1.105 -999 351 5.4 101260 48
2011-03-17 13:12 51°27.689 3°0.789 -999 351 5.4 101270 48
2011-03-17 13:13 51°27.652 3°0.465 -999 352 5.4 101260 47
2011-03-17 13:14 51°27.614 3°0.147 -999 348 5.4 101260 48
2011-03-17 13:15 51°27.575 2°59.822 10.4 350 5.4 101260 48
2011-03-17 13:16 51°27.535 2°59.494 10.8 347 5.4 101270 48
2011-03-17 13:17 51°27.493 2°59.167 8.9 281 5.5 101270 49
2011-03-17 13:18 51°27.45 2°58.839 8 283 5.4 101270 49
2011-03-17 13:19 51°27.408 2°58.512 8.5 281 5.4 101270 49
2011-03-17 13:20 51°27.365 2°58.187 9.2 282 5.4 101270 50
2011-03-17 13:21 51°27.323 2°57.857 12.6 349 5.4 101270 46
2011-03-17 13:22 51°27.278 2°57.531 13.4 353 5.4 101280 49
2011-03-17 13:23 51°27.234 2°57.204 12.5 348 5.4 101270 47
2011-03-17 13:24 51°27.187 2°56.879 11.8 349 5.4 101270 49
2011-03-17 13:25 51°27.143 2°56.555 12.7 347 5.4 101270 49
2011-03-17 13:26 51°27.098 2°56.231 9.3 282 5.4 101270 48
2011-03-17 13:27 51°27.053 2°55.905 12.9 349 5.4 101270 48
2011-03-17 13:28 51°26.997 2°55.586 12.3 350 5.4 101270 48
2011-03-17 13:29 51°26.941 2°55.269 10 279 5.4 101280 48
2011-03-17 13:30 51°26.883 2°54.954 13 351 5.4 101290 49
2011-03-17 13:31 51°26.827 2°54.634 14 282 5.4 101290 49
2011-03-17 13:32 51°26.772 2°54.316 11 349 5.4 101290 49
2011-03-17 13:33 51°26.713 2°53.997 13.9 280 5.4 101290 47
2011-03-17 13:34 51°26.654 2°53.673 12.8 285 5.4 101290 49
2011-03-17 13:35 51°26.595 2°53.349 10.6 346 5.4 101290 49
2011-03-17 13:36 51°26.535 2°53.027 10.3 278 5.4 101280 48
2011-03-17 13:37 51°26.475 2°52.704 9.2 279 5.4 101290 48
2011-03-17 13:38 51°26.415 2°52.382 9.2 280 5.3 101290 47
2011-03-17 13:39 51°26.354 2°52.061 12.9 347 5.4 101300 48
2011-03-17 13:40 51°26.292 2°51.741 13.5 281 5.3 101290 47
2011-03-17 13:41 51°26.232 2°51.418 9.8 280 5.4 101290 49
2011-03-17 13:42 51°26.172 2°51.092 11.6 353 5.4 101290 48
2011-03-17 13:43 51°26.111 2°50.768 9.9 350 5.4 101290 48
2011-03-17 13:44 51°26.049 2°50.445 12.6 348 5.4 101290 48
2011-03-17 13:45 51°25.99 2°50.118 13.4 348 5.4 101290 46
2011-03-17 13:46 51°25.93 2°49.792 9.1 282 5.3 101290 47
2011-03-17 13:47 51°25.885 2°49.459 8.7 279 5.3 101290 48
2011-03-17 13:48 51°25.849 2°49.136 8.2 280 5.4 101300 47
2011-03-17 13:49 51°25.83 2°48.876 7.8 279 5.4 101310 47
2011-03-17 13:50 51°25.82 2°48.674 9.8 281 5.4 101320 48
2011-03-17 13:51 51°25.853 2°48.528 9.9 286 5.5 101320 47
2011-03-17 13:52 51°25.913 2°48.443 9.1 287 5.5 101320 46
2011-03-17 13:53 51°25.97 2°48.447 7.3 281 5.5 101320 46
2011-03-17 13:54 51°25.99 2°48.469 7 280 5.5 101330 47
2011-03-17 13:55 51°25.994 2°48.483 6 281 5.5 101340 48
2011-03-17 13:56 51°25.996 2°48.499 6.9 80 5.5 101340 49
2011-03-17 13:57 51°25.998 2°48.515 5.5 281 5.4 101340 49
2011-03-17 13:58 51°25.999 2°48.53 6.3 284 5.5 101340 49
2011-03-17 13:59 51°26 2°48.544 6 284 5.4 101350 49
2011-03-17 14:00 51°26.004 2°48.587 6.2 74 5.4 101360 49
2011-03-17 14:01 51°25.971 2°48.657 6.8 31 5.5 101360 45
2011-03-17 14:02 51°25.915 2°48.607 8.9 4 5.4 101350 48
2011-03-17 14:03 51°25.838 2°48.419 14.6 354 5.4 101330 46
2011-03-17 14:04 51°25.755 2°48.119 11.2 353 5.4 101320 48
2011-03-17 14:05 51°25.663 2°47.815 13.4 352 5.4 101330 48
2011-03-17 14:06 51°25.566 2°47.511 13.6 354 5.4 101340 48
2011-03-17 14:07 51°25.469 2°47.208 13.9 355 5.4 101330 47
2011-03-17 14:08 51°25.372 2°46.906 12.2 353 5.3 101330 48
2011-03-17 14:09 51°25.273 2°46.604 12.8 350 5.3 101340 46
2011-03-17 14:10 51°25.175 2°46.304 13.7 349 5.3 101340 49
2011-03-17 14:11 51°25.077 2°46 9.8 351 5.3 101340 49
2011-03-17 14:12 51°24.967 2°45.71 13 354 5.3 101340 47
2011-03-17 14:13 51°24.855 2°45.42 9 355 5.3 101340 48
2011-03-17 14:14 51°24.743 2°45.132 8.7 355 5.3 101340 48
2011-03-17 14:15 51°24.631 2°44.842 9.2 351 5.3 101350 48
2011-03-17 14:16 51°24.521 2°44.551 9.7 355 5.3 101350 48
2011-03-17 14:17 51°24.409 2°44.26 11.2 352 5.3 101340 47
2011-03-17 14:18 51°24.297 2°43.968 11.7 351 5.3 101350 48
2011-03-17 14:19 51°24.182 2°43.675 11.9 353 5.4 101350 49
2011-03-17 14:20 51°24.067 2°43.383 11.8 351 5.4 101340 48
2011-03-17 14:21 51°23.954 2°43.087 11.4 352 5.4 101350 48
2011-03-17 14:22 51°23.849 2°42.78 11.2 352 5.3 101360 48
2011-03-17 14:23 51°23.748 2°42.469 11.4 351 5.4 101360 47
2011-03-17 14:24 51°23.648 2°42.163 11.5 352 5.4 101360 47
2011-03-17 14:25 51°23.55 2°41.856 11.4 351 5.4 101370 47
2011-03-17 14:26 51°23.451 2°41.546 11.8 353 5.4 101370 46
2011-03-17 14:27 51°23.35 2°41.233 11.5 354 5.4 101370 46
2011-03-17 14:28 51°23.249 2°40.918 11.8 352 5.4 101380 48
2011-03-17 14:29 51°23.147 2°40.603 10 356 5.4 101380 48
2011-03-17 14:30 51°23.045 2°40.292 10.6 357 5.4 101380 47
2011-03-17 14:31 51°22.875 2°40.116 4 8 5.4 101390 49
2011-03-17 14:32 51°22.661 2°40.109 3.4 4 5.4 101410 46
2011-03-17 14:33 51°22.446 2°40.104 5.2 9 5.5 101410 47
2011-03-17 14:34 51°22.248 2°39.986 8.9 358 5.5 101410 48
2011-03-17 14:35 51°22.067 2°39.796 8 3 5.5 101380 49
2011-03-17 14:36 51°21.881 2°39.605 6.9 357 5.5 101390 49
2011-03-17 14:37 51°21.712 2°39.38 10.2 352 5.5 101390 48
2011-03-17 14:38 51°21.585 2°39.093 9.4 351 5.5 101390 48
2011-03-17 14:39 51°21.471 2°38.788 8.6 281 5.5 101400 47
2011-03-17 14:40 51°21.365 2°38.475 8.3 353 5.4 101390 48
2011-03-17 14:41 51°21.257 2°38.163 12.5 350 5.5 101390 47
2011-03-17 14:42 51°21.153 2°37.849 13.2 282 5.5 101390 48
2011-03-17 14:43 51°21.104 2°37.502 13.3 285 5.5 101390 48
2011-03-17 14:44 51°21.06 2°37.155 13.2 282 5.5 101390 47
2011-03-17 14:45 51°21.015 2°36.807 11.4 279 5.5 101380 47
2011-03-17 14:46 51°20.968 2°36.461 10.1 282 5.5 101380 48
2011-03-17 14:47 51°20.916 2°36.112 9.6 279 5.5 101400 47
2011-03-17 14:48 51°20.866 2°35.762 10.1 281 5.5 101400 48
2011-03-17 14:49 51°20.817 2°35.41 9.4 280 5.5 101400 46
2011-03-17 14:50 51°20.768 2°35.055 9.9 346 5.5 101400 47
2011-03-17 14:51 51°20.719 2°34.701 8.9 281 5.5 101400 48
2011-03-17 14:52 51°20.67 2°34.353 11 281 5.5 101400 48
2011-03-17 14:53 51°20.619 2°34.01 10.4 345 5.5 101410 47
2011-03-17 14:54 51°20.571 2°33.668 12.5 283 5.5 101410 48
2011-03-17 14:55 51°20.519 2°33.325 10.4 282 5.4 101410 47
2011-03-17 14:56 51°20.44 2°32.993 12.3 283 5.4 101410 47
2011-03-17 14:57 51°20.362 2°32.664 13.2 278 5.4 101420 47
2011-03-17 14:58 51°20.282 2°32.33 11.3 280 5.4 101420 48
2011-03-17 14:59 51°20.204 2°31.996 10.2 277 5.4 101430 47
2011-03-17 15:00 51°20.123 2°31.663 13.3 286 5.4 101430 48
2011-03-17 15:01 51°20.043 2°31.331 13.5 347 5.5 101420 48
2011-03-17 15:02 51°19.962 2°30.996 11.9 278 5.5 101430 47
2011-03-17 15:03 51°19.885 2°30.655 14.3 278 5.5 101430 47
2011-03-17 15:04 51°19.802 2°30.334 9.2 347 5.5 101430 48
2011-03-17 15:05 51°19.823 2°30.071 11.7 283 5.5 101470 47
2011-03-17 15:06 51°19.917 2°29.851 14.8 282 5.6 101440 47
2011-03-17 15:07 51°20.002 2°29.862 5.4 281 5.6 101430 48
2011-03-17 15:08 51°20.01 2°29.942 5 285 5.6 101460 48
2011-03-17 15:09 51°20.024 2°30.002 4.8 282 5.6 101450 46
2011-03-17 15:10 51°20.029 2°30 6.2 284 5.5 101440 45
2011-03-17 15:11 51°20.03 2°29.986 6.9 281 5.6 101440 48
2011-03-17 15:12 51°20.029 2°29.968 7.6 280 5.6 101440 48
2011-03-17 15:13 51°20.025 2°29.943 7 280 5.6 101430 45
2011-03-17 15:14 51°20.019 2°29.919 4.7 280 5.7 101430 46
2011-03-17 15:15 51°20.032 2°30.013 5.6 284 5.6 101430 45
2011-03-17 15:16 51°20.03 2°30.254 0.7 283 5.6 101430 49
2011-03-17 15:17 51°19.929 2°30.511 -999 14 5.6 101440 47
2011-03-17 15:18 51°19.809 2°30.768 -999 13 5.6 101450 47
2011-03-17 15:19 51°19.689 2°31.035 -999 23 5.6 101450 47
2011-03-17 15:20 51°19.565 2°31.304 -999 36 5.6 101450 47
2011-03-17 15:21 51°19.442 2°31.579 -999 352 5.6 101460 46
2011-03-17 15:22 51°19.319 2°31.849 -999 10 5.6 101450 47
2011-03-17 15:23 51°19.196 2°32.124 -999 283 5.6 101460 47
2011-03-17 15:24 51°19.074 2°32.4 -999 283 5.7 101460 47
2011-03-17 15:25 51°18.95 2°32.671 -999 283 5.7 101460 47
2011-03-17 15:26 51°18.824 2°32.94 -999 358 5.7 101460 47
2011-03-17 15:27 51°18.701 2°33.211 0.1 287 5.7 101460 47
2011-03-17 15:28 51°18.58 2°33.48 -999 7 5.8 101460 47
2011-03-17 15:29 51°18.457 2°33.741 -999 36 5.7 101460 46
2011-03-17 15:30 51°18.332 2°34.006 -999 39 5.7 101460 47
2011-03-17 15:31 51°18.209 2°34.272 -999 5 5.7 101470 47
2011-03-17 15:32 51°18.076 2°34.529 -999 77 5.7 101470 47
2011-03-17 15:33 51°17.943 2°34.78 -999 17 5.7 101470 47
2011-03-17 15:34 51°17.809 2°35.028 -999 77 5.7 101470 47
2011-03-17 15:35 51°17.681 2°35.278 -999 357 5.7 101480 47
2011-03-17 15:36 51°17.553 2°35.52 -999 29 5.8 101490 47
2011-03-17 15:37 51°17.393 2°35.715 -999 25 5.8 101490 46
2011-03-17 15:38 51°17.228 2°35.917 -999 22 5.7 101490 47
2011-03-17 15:39 51°17.062 2°36.122 -999 21 5.7 101500 47
2011-03-17 15:40 51°16.897 2°36.329 -999 29 5.7 101510 47
2011-03-17 15:41 51°16.737 2°36.51 -999 77 5.7 101510 47
2011-03-17 15:42 51°16.626 2°36.612 5.8 41 5.7 101520 46
2011-03-17 15:43 51°16.575 2°36.68 6.3 79 5.7 101520 46
2011-03-17 15:44 51°16.583 2°36.737 5.7 285 5.7 101550 46
2011-03-17 15:45 51°16.598 2°36.77 9.3 285 5.7 101550 46
2011-03-17 15:46 51°16.599 2°36.771 8.7 285 5.7 101560 47
2011-03-17 15:47 51°16.596 2°36.767 8 279 5.7 101560 47
2011-03-17 15:48 51°16.588 2°36.76 7.8 285 5.7 101560 48
2011-03-17 15:49 51°16.578 2°36.75 7.6 284 5.6 101550 46
2011-03-17 15:50 51°16.565 2°36.741 8.8 285 5.6 101530 46
2011-03-17 15:51 51°16.557 2°36.741 6.1 286 5.6 101530 46
2011-03-17 15:52 51°16.542 2°36.798 4.3 79 5.6 101530 46
2011-03-17 15:53 51°16.45 2°36.893 0.4 81 5.8 101530 45
2011-03-17 15:54 51°16.304 2°37.031 4.7 39 6 101530 49
2011-03-17 15:55 51°16.107 2°37.117 4.1 26 5.9 101520 45
2011-03-17 15:56 51°15.891 2°37.176 5 22 5.8 101510 48
2011-03-17 15:57 51°15.679 2°37.233 5.3 20 5.8 101520 45
2011-03-17 15:58 51°15.47 2°37.308 5 18 5.8 101520 45
2011-03-17 15:59 51°15.259 2°37.362 6.4 15 5.8 101510 48
2011-03-17 16:00 51°15.051 2°37.431 4.7 21 5.7 101520 45
2011-03-17 16:01 51°14.84 2°37.486 4.5 15 5.7 101530 47
2011-03-17 16:02 51°14.618 2°37.486 6.4 11 5.7 101520 45
2011-03-17 16:03 51°14.395 2°37.496 7.4 15 5.7 101530 47
2011-03-17 16:04 51°14.169 2°37.519 5.4 12 5.7 101530 46
2011-03-17 16:05 51°13.944 2°37.541 5.4 14 5.7 101530 46
2011-03-17 16:06 51°13.718 2°37.542 4.5 7 5.7 101530 48
2011-03-17 16:07 51°13.506 2°37.532 4.6 15 5.7 101530 48
2011-03-17 16:08 51°13.292 2°37.534 4.5 8 5.7 101530 47
2011-03-17 16:09 51°13.067 2°37.536 3.9 13 5.7 101530 45
2011-03-17 16:10 51°12.841 2°37.536 4.8 11 5.7 101530 48
2011-03-17 16:11 51°12.614 2°37.518 6.2 6 5.7 101530 49
2011-03-17 16:12 51°12.396 2°37.4 8.6 8 5.7 101530 46
2011-03-17 16:13 51°12.179 2°37.274 6.3 7 5.7 101530 48
2011-03-17 16:14 51°11.96 2°37.148 5.6 7 5.7 101530 46
2011-03-17 16:15 51°11.74 2°37.033 7 1 5.8 101540 46
2011-03-17 16:16 51°11.518 2°36.916 5.6 6 5.8 101530 48
2011-03-17 16:17 51°11.296 2°36.795 6.4 1 5.8 101530 45
2011-03-17 16:18 51°11.075 2°36.677 7.2 2 5.7 101540 49
2011-03-17 16:19 51°10.851 2°36.587 4.7 7 5.7 101540 46
2011-03-17 16:20 51°10.625 2°36.546 7.6 9 5.8 101550 47
2011-03-17 16:21 51°10.404 2°36.49 7.6 9 5.8 101550 47
2011-03-17 16:22 51°10.191 2°36.523 0.1 77 5.8 101550 50
2011-03-17 16:23 51°10.135 2°36.817 5.8 283 5.8 101560 48
2011-03-17 16:24 51°10.175 2°37.119 6.4 278 5.8 101550 49
2011-03-17 16:25 51°10.232 2°37.424 6.4 280 5.8 101550 45
2011-03-17 16:26 51°10.284 2°37.731 5.5 284 5.8 101550 46
2011-03-17 16:27 51°10.334 2°38.041 6.2 279 5.8 101550 49
2011-03-17 16:28 51°10.385 2°38.351 5.5 286 5.8 101550 49
2011-03-17 16:29 51°10.435 2°38.662 6.2 283 5.9 101550 49
2011-03-17 16:30 51°10.483 2°38.972 4.5 285 5.8 101550 46
2011-03-17 16:31 51°10.532 2°39.279 5.8 279 5.9 101550 49
2011-03-17 16:32 51°10.585 2°39.58 6.1 281 5.9 101540 47
2011-03-17 16:33 51°10.643 2°39.882 7.5 285 5.8 101540 46
2011-03-17 16:34 51°10.699 2°40.182 7.1 281 5.8 101540 48
2011-03-17 16:35 51°10.755 2°40.482 5.8 285 5.8 101550 46
2011-03-17 16:36 51°10.814 2°40.779 7.2 286 5.8 101540 48
2011-03-17 16:37 51°10.878 2°41.071 8.8 286 5.8 101540 47
2011-03-17 16:38 51°10.942 2°41.363 6.5 285 5.8 101550 46
2011-03-17 16:39 51°10.992 2°41.602 8 286 5.8 101550 46
2011-03-17 16:40 51°11.03 2°41.783 7.2 286 5.8 101580 49
2011-03-17 16:41 51°11.069 2°41.949 7.2 283 5.8 101570 46
2011-03-17 16:42 51°11.114 2°42.083 6.2 281 5.8 101570 49
2011-03-17 16:43 51°11.125 2°42.121 3.9 284 5.8 101580 49
2011-03-17 16:44 51°11.118 2°42.12 7 286 5.8 101570 47
2011-03-17 16:45 51°11.109 2°42.111 7 279 5.8 101590 49
2011-03-17 16:46 51°11.097 2°42.097 9.4 285 5.8 101580 47
2011-03-17 16:47 51°11.085 2°42.08 5.9 281 5.8 101580 47
2011-03-17 16:48 51°11.072 2°42.062 5 285 5.8 101580 47
2011-03-17 16:49 51°11.061 2°42.045 5.9 285 5.8 101580 48
2011-03-17 16:50 51°11.054 2°42.031 5.1 284 5.8 101570 46
2011-03-17 16:51 51°11.05 2°42.02 6.9 285 5.8 101590 49
2011-03-17 16:52 51°11.047 2°42.009 8.2 285 5.9 101580 49
2011-03-17 16:53 51°11.043 2°41.999 8.5 284 5.9 101580 49
2011-03-17 16:54 51°11.037 2°41.989 8.1 280 5.8 101590 49
2011-03-17 16:55 51°11.031 2°41.98 6.4 285 5.8 101590 48
2011-03-17 16:56 51°11.031 2°41.975 6.7 281 5.9 101590 49
2011-03-17 16:57 51°11.063 2°41.997 7 286 5.9 101590 47
2011-03-17 16:58 51°11.083 2°42.005 8.3 284 5.9 101580 46
2011-03-17 16:59 51°11.091 2°42.014 6.6 281 5.9 101590 47
2011-03-17 17:00 51°11.092 2°42.02 7.3 286 5.9 101590 49
2011-03-17 17:01 51°11.092 2°42.019 7.1 282 5.9 101590 47
2011-03-17 17:02 51°11.091 2°42.015 6.1 285 5.9 101590 46
2011-03-17 17:03 51°11.09 2°42.008 5.7 280 5.8 101590 46
2011-03-17 17:04 51°11.088 2°41.999 6.7 255 5.9 101590 49
2011-03-17 17:05 51°11.086 2°41.99 7.4 285 5.9 101600 49
2011-03-17 17:06 51°11.083 2°41.979 7 279 5.8 101590 46
2011-03-17 17:07 51°11.08 2°41.967 5.8 280 5.8 101590 47
2011-03-17 17:08 51°11.077 2°41.955 6.7 285 5.8 101600 46
2011-03-17 17:09 51°11.074 2°41.941 6.6 283 5.8 101600 46
2011-03-17 17:10 51°11.071 2°41.929 6.4 284 5.9 101600 47
2011-03-17 17:11 51°11.068 2°41.916 9.8 281 5.9 101590 46
2011-03-17 17:12 51°11.066 2°41.904 8.8 285 5.9 101600 46
2011-03-17 17:13 51°11.064 2°41.892 7.4 283 5.8 101600 47
2011-03-17 17:14 51°11.066 2°41.886 8.7 281 5.9 101600 47
2011-03-17 17:15 51°11.09 2°41.957 3 284 5.9 101610 49
2011-03-17 17:16 51°11.103 2°42.179 4.2 286 5.8 101610 45
2011-03-17 17:17 51°11.121 2°42.479 1.5 287 5.8 101610 46
2011-03-17 17:18 51°11.138 2°42.784 2.7 286 5.8 101620 48
2011-03-17 17:19 51°11.151 2°43.086 4.5 281 5.8 101610 46
2011-03-17 17:20 51°11.195 2°43.376 5.2 281 5.9 101600 48
2011-03-17 17:21 51°11.251 2°43.66 6.4 285 5.8 101610 46
2011-03-17 17:22 51°11.303 2°43.947 7.1 25 5.8 101610 49
2011-03-17 17:23 51°11.353 2°44.234 5.8 286 5.8 101610 46
2011-03-17 17:24 51°11.404 2°44.521 6.4 282 5.8 101620 46
2011-03-17 17:25 51°11.454 2°44.808 5.8 280 5.8 101620 46
2011-03-17 17:26 51°11.502 2°45.094 5 287 5.8 101620 46
2011-03-17 17:27 51°11.552 2°45.38 6.9 284 5.9 101620 48
2011-03-17 17:28 51°11.599 2°45.664 5.8 286 5.8 101630 48
2011-03-17 17:29 51°11.663 2°45.939 7.1 281 5.8 101620 46
2011-03-17 17:30 51°11.728 2°46.215 7.6 282 5.8 101610 48
2011-03-17 17:31 51°11.791 2°46.494 5.4 245 5.8 101630 46
2011-03-17 17:32 51°11.854 2°46.771 6.1 284 5.8 101630 46
2011-03-17 17:33 51°11.928 2°47.04 6.8 285 5.8 101630 47
2011-03-17 17:34 51°12.007 2°47.307 5.9 285 5.8 101630 46
2011-03-17 17:35 51°12.082 2°47.577 6.4 284 5.7 101630 46
2011-03-17 17:36 51°12.161 2°47.845 6.3 281 5.7 101620 46
2011-03-17 17:37 51°12.239 2°48.113 8.1 282 5.7 101630 47
2011-03-17 17:38 51°12.324 2°48.374 6.9 285 5.7 101620 47
2011-03-17 17:39 51°12.408 2°48.635 7.4 281 5.7 101620 48
2011-03-17 17:40 51°12.489 2°48.898 8.5 284 5.7 101620 47
2011-03-17 17:41 51°12.583 2°49.15 8.4 286 5.7 101630 48
2011-03-17 17:42 51°12.675 2°49.406 5.6 286 5.7 101630 47
2011-03-17 17:43 51°12.769 2°49.662 7.7 286 5.8 101640 47
2011-03-17 17:44 51°12.867 2°49.915 6.7 280 5.7 101630 48
2011-03-17 17:45 51°12.963 2°50.174 6.5 281 5.7 101640 47
2011-03-17 17:46 51°13.06 2°50.437 6.4 284 5.8 101650 49
2011-03-17 17:47 51°13.156 2°50.704 7.9 285 5.8 101650 48
2011-03-17 17:48 51°13.254 2°50.969 8.9 280 5.8 101640 46
2011-03-17 17:49 51°13.353 2°51.231 7.4 282 5.8 101630 46
2011-03-17 17:50 51°13.448 2°51.494 9.3 286 5.8 101630 46
2011-03-17 17:51 51°13.544 2°51.754 7 279 5.7 101630 46
2011-03-17 17:52 51°13.641 2°52.013 10 286 5.7 101630 47
2011-03-17 17:53 51°13.737 2°52.272 9.6 280 5.7 101620 47
2011-03-17 17:54 51°13.83 2°52.531 8.3 281 5.7 101630 46
2011-03-17 17:55 51°13.923 2°52.793 6.6 279 5.7 101620 48
2011-03-17 17:56 51°14.017 2°53.056 6 280 5.7 101630 48
2011-03-17 17:57 51°14.11 2°53.319 8.8 281 5.7 101630 46
2011-03-17 17:58 51°14.208 2°53.581 9 285 5.7 101620 48
2011-03-17 17:59 51°14.306 2°53.843 8.9 281 5.7 101620 48
2011-03-17 18:00 51°14.416 2°54.092 9.7 281 5.7 101620 46
2011-03-17 18:01 51°14.513 2°54.356 6.6 286 5.7 101630 46
2011-03-17 18:02 51°14.596 2°54.63 4.8 285 5.7 101630 48
2011-03-17 18:03 51°14.541 2°54.927 0.2 283 5.7 101650 45
2011-03-17 18:04 51°14.395 2°55.154 -999 283 5.7 101660 47
2011-03-17 18:05 51°14.234 2°55.325 -999 351 5.7 101660 47
2011-03-17 18:06 51°14.088 2°55.44 -999 38 5.7 101650 47
2011-03-17 18:07 51°13.961 2°55.531 -999 78 5.7 101650 47
2011-03-17 18:08 51°13.855 2°55.608 -999 45 5.7 101650 47
2011-03-17 18:09 51°13.765 2°55.701 -999 77 5.7 101650 46
2011-03-17 18:10 51°13.71 2°55.806 -999 77 5.7 101660 47
2011-03-17 18:11 51°13.675 2°55.89 0.9 81 5.7 101660 47
2011-03-17 18:12 51°13.662 2°55.956 2.5 82 5.7 101660 48